createdAt,value
2023-03-10T10:51:00.918Z,21.65
2023-03-10T10:53:34.341Z,18.08
2023-03-10T10:56:15.224Z,19.30
2023-03-10T10:58:45.612Z,13.52
2023-03-10T11:01:16.481Z,18.77
2023-03-10T11:03:49.005Z,18.30
2023-03-10T11:06:32.302Z,13.23
2023-03-10T11:09:12.703Z,18.27
2023-03-10T11:11:58.893Z,19.23
2023-03-10T11:14:26.131Z,19.35
2023-03-10T11:17:03.159Z,19.83
2023-03-10T11:19:49.912Z,19.50
2023-03-10T11:22:35.328Z,16.70
2023-03-10T11:25:22.086Z,26.30
2023-03-10T11:27:52.437Z,17.38
2023-03-10T11:30:31.061Z,15.50
2023-03-10T11:33:22.037Z,24.13
2023-03-10T11:35:52.548Z,21.88
2023-03-10T11:38:35.150Z,24.38
2023-03-10T11:41:24.012Z,17.35
2023-03-10T11:44:12.033Z,26.17
2023-03-10T11:46:59.545Z,15.57
2023-03-10T11:49:35.582Z,19.08
2023-03-10T11:52:15.178Z,20.48
2023-03-10T11:54:50.133Z,14.18
2023-03-10T11:57:20.135Z,25.65
2023-03-10T11:59:57.723Z,14.27
2023-03-10T12:02:33.854Z,21.15
2023-03-10T12:05:08.634Z,18.13
2023-03-10T12:07:42.887Z,20.98
2023-03-10T12:10:13.259Z,18.50
2023-03-10T12:12:51.427Z,26.60
2023-03-10T12:15:30.415Z,20.95
2023-03-10T12:17:58.448Z,17.33
2023-03-10T12:20:29.349Z,17.60
2023-03-10T12:22:59.222Z,21.33
2023-03-10T12:25:33.350Z,26.20
2023-03-10T12:28:19.180Z,22.48
2023-03-10T12:30:46.800Z,28.80
2023-03-10T12:33:44.671Z,23.65
2023-03-10T12:36:32.801Z,21.92
2023-03-10T12:39:19.960Z,21.58
2023-03-10T12:41:53.203Z,26.33
2023-03-10T12:44:44.384Z,26.52
2023-03-10T12:47:30.565Z,24.58
2023-03-10T12:50:27.350Z,21.77
2023-03-10T12:53:05.768Z,20.90
2023-03-10T12:55:33.673Z,24.33
2023-03-10T12:58:07.560Z,17.02
2023-03-10T13:00:58.881Z,14.15
2023-03-10T13:03:46.890Z,17.57
2023-03-10T13:06:14.227Z,21.27
2023-03-10T13:08:46.633Z,22.17
2023-03-10T13:11:19.827Z,19.73
2023-03-10T13:13:56.370Z,21.58
2023-03-10T13:16:23.780Z,21.75
2023-03-10T13:18:53.229Z,19.50
2023-03-10T13:21:32.026Z,19.70
2023-03-10T13:24:01.540Z,19.85
2023-03-10T13:26:29.127Z,19.10
2023-03-10T13:29:00.113Z,18.23
2023-03-10T13:31:30.527Z,22.52
2023-03-10T13:33:58.475Z,23.65
2023-03-10T13:36:35.945Z,23.17
2023-03-10T13:39:15.970Z,17.73
2023-03-10T13:41:51.780Z,19.77
2023-03-10T13:44:40.784Z,19.80
2023-03-10T13:47:24.079Z,24.40
2023-03-10T13:49:55.180Z,23.05
2023-03-10T13:52:25.666Z,19.43
2023-03-10T13:55:04.209Z,17.35
2023-03-10T13:57:37.049Z,15.27
2023-03-10T14:00:08.949Z,19.75
2023-03-10T14:02:41.547Z,16.73
2023-03-10T14:05:43.713Z,12.05
2023-03-10T14:10:46.784Z,22.25
2023-03-10T14:13:40.199Z,20.75
2023-03-10T14:16:08.552Z,29.15
2023-03-10T14:18:37.858Z,21.83
2023-03-10T14:21:26.143Z,15.27
2023-03-10T14:23:53.668Z,16.75
2023-03-10T14:26:20.977Z,24.45
2023-03-10T14:28:48.465Z,19.33
2023-03-10T14:31:22.648Z,15.70
2023-03-10T14:33:51.003Z,19.85
2023-03-10T14:36:18.562Z,18.05
2023-03-10T14:38:46.177Z,19.05
2023-03-10T14:41:14.390Z,17.38
2023-03-10T14:43:42.601Z,18.38
2023-03-10T14:46:12.210Z,18.92
2023-03-10T14:48:41.921Z,16.38
2023-03-10T14:51:32.528Z,16.80
2023-03-10T14:54:00.135Z,20.63
2023-03-10T14:56:28.400Z,20.50
2023-03-10T14:58:56.716Z,19.10
2023-03-10T15:01:24.135Z,18.48
2023-03-10T15:03:51.633Z,17.08
2023-03-10T15:06:20.445Z,18.35
2023-03-10T15:08:47.835Z,17.17
2023-03-10T15:11:24.067Z,15.98
2023-03-10T15:13:58.280Z,18.50
2023-03-10T15:16:25.786Z,22.13
2023-03-10T15:18:53.949Z,20.40
2023-03-10T15:21:21.324Z,24.23
2023-03-10T15:23:48.616Z,23.73
2023-03-10T15:26:15.912Z,22.58
2023-03-10T15:28:43.269Z,26.23
2023-03-10T15:31:10.647Z,23.50
2023-03-10T15:33:38.408Z,33.50
2023-03-10T15:36:06.812Z,27.65
2023-03-10T15:38:34.150Z,27.27
2023-03-10T15:41:01.392Z,27.58
2023-03-10T15:43:28.753Z,22.73
2023-03-10T15:45:56.143Z,19.00
2023-03-10T15:48:23.473Z,22.08
2023-03-10T15:50:50.824Z,25.65
2023-03-10T15:53:18.139Z,24.38
2023-03-10T15:55:45.733Z,30.10
2023-03-10T15:58:13.142Z,28.10
2023-03-10T16:00:42.314Z,20.95
2023-03-10T16:03:11.132Z,27.10
2023-03-10T16:05:39.276Z,22.88
2023-03-10T16:08:06.673Z,28.30
2023-03-10T16:10:35.072Z,29.58
2023-03-10T16:13:02.536Z,24.55
2023-03-10T16:15:29.925Z,27.70
2023-03-10T16:17:57.678Z,34.67
2023-03-10T16:20:24.994Z,33.60
2023-03-10T16:22:52.244Z,29.35
2023-03-10T16:25:21.217Z,28.45
2023-03-10T16:27:48.904Z,29.80
2023-03-10T16:30:17.655Z,38.45
2023-03-10T16:32:49.134Z,32.20
2023-03-10T16:35:17.631Z,31.90
2023-03-10T16:37:45.063Z,34.22
2023-03-10T16:40:13.196Z,31.75
2023-03-10T16:42:43.428Z,38.75
2023-03-10T16:45:11.310Z,32.13
2023-03-10T16:47:38.772Z,32.47
2023-03-10T16:50:06.541Z,34.92
2023-03-10T16:52:40.023Z,38.42
2023-03-10T16:55:09.394Z,34.60
2023-03-10T16:57:36.808Z,45.50
2023-03-10T17:00:05.768Z,45.47
2023-03-10T17:02:33.162Z,41.15
2023-03-10T17:05:00.627Z,44.10
2023-03-10T17:07:28.001Z,51.72
2023-03-10T17:09:55.510Z,41.38
2023-03-10T17:12:23.127Z,44.15
2023-03-10T17:14:50.898Z,43.42
2023-03-10T17:17:18.404Z,49.67
2023-03-10T17:19:45.815Z,38.38
2023-03-10T17:22:13.163Z,45.47
2023-03-10T17:24:40.450Z,42.83
2023-03-10T17:27:07.826Z,38.65
2023-03-10T17:29:35.523Z,44.33
2023-03-10T17:32:03.040Z,48.15
2023-03-10T17:34:30.408Z,48.08
2023-03-10T17:36:57.815Z,49.25
2023-03-10T17:39:27.560Z,53.63
2023-03-10T17:41:55.138Z,50.13
2023-03-10T17:44:22.674Z,50.38
2023-03-10T17:46:52.536Z,48.25
2023-03-10T17:49:19.861Z,49.33
2023-03-10T17:51:47.490Z,50.72
2023-03-10T17:54:20.327Z,55.63
2023-03-10T17:56:48.851Z,53.67
2023-03-10T17:59:16.662Z,61.45
2023-03-10T18:01:45.291Z,57.92
2023-03-10T18:04:13.104Z,60.10
2023-03-10T18:06:40.973Z,55.63
2023-03-10T18:09:12.143Z,60.90
2023-03-10T18:11:39.733Z,69.53
2023-03-10T18:14:07.618Z,56.80
2023-03-10T18:16:38.553Z,58.13
2023-03-10T18:19:09.854Z,60.05
2023-03-10T18:24:06.562Z,47.80
2023-03-10T18:26:35.541Z,50.05
2023-03-10T18:29:02.997Z,42.63
2023-03-10T18:31:32.704Z,45.85
2023-03-10T18:34:00.624Z,43.03
2023-03-10T18:36:28.631Z,45.13
2023-03-10T18:38:56.424Z,43.75
2023-03-10T18:41:26.695Z,50.38
2023-03-10T18:43:54.120Z,44.58
2023-03-10T18:46:22.319Z,43.17
2023-03-10T18:48:55.476Z,48.47
2023-03-10T18:51:27.578Z,43.63
2023-03-10T18:53:55.480Z,45.25
2023-03-10T18:56:26.009Z,40.40
2023-03-10T18:58:53.694Z,42.42
2023-03-10T19:01:21.172Z,38.50
2023-03-10T19:03:48.499Z,40.58
2023-03-10T19:06:15.889Z,41.50
2023-03-10T19:08:44.115Z,36.70
2023-03-10T19:11:12.058Z,35.22
2023-03-10T19:13:40.623Z,39.10
2023-03-10T19:16:08.889Z,36.10
2023-03-10T19:18:36.723Z,39.20
2023-03-10T19:21:04.963Z,39.20
2023-03-10T19:23:34.892Z,36.97
2023-03-10T19:26:02.850Z,36.55
2023-03-10T19:28:30.523Z,35.40
2023-03-10T19:30:58.038Z,30.83
2023-03-10T19:33:25.438Z,38.53
2023-03-10T19:36:03.959Z,32.75
2023-03-10T19:38:31.618Z,36.20
2023-03-10T19:40:59.126Z,38.33
2023-03-10T19:43:26.441Z,39.50
2023-03-10T19:46:08.084Z,40.88
2023-03-10T19:48:35.927Z,38.10
2023-03-10T19:51:05.530Z,33.10
2023-03-10T19:53:33.965Z,33.35
2023-03-10T19:56:04.431Z,37.72
2023-03-10T19:58:32.318Z,40.92
2023-03-10T20:01:00.435Z,35.92
2023-03-10T20:03:30.235Z,34.13
2023-03-10T20:05:58.028Z,36.10
2023-03-10T20:08:25.400Z,29.23
2023-03-10T20:10:52.828Z,29.85
2023-03-10T20:13:20.292Z,22.02
2023-03-10T20:15:47.776Z,29.60
2023-03-10T20:18:18.414Z,20.58
2023-03-10T20:20:45.932Z,20.77
2023-03-10T20:23:14.047Z,24.40
2023-03-10T20:25:42.059Z,23.15
2023-03-10T20:28:10.194Z,24.23
2023-03-10T20:30:37.705Z,17.13
2023-03-10T20:33:05.200Z,21.05
2023-03-10T20:35:33.330Z,23.83
2023-03-10T20:38:02.046Z,22.95
2023-03-10T20:40:29.521Z,21.88
2023-03-10T20:42:59.603Z,33.97
2023-03-10T20:45:27.545Z,23.58
2023-03-10T20:47:54.951Z,26.23
2023-03-10T20:50:23.209Z,29.33
2023-03-10T20:52:51.224Z,23.42
2023-03-10T20:55:25.219Z,21.88
2023-03-10T20:57:54.331Z,20.25
2023-03-10T21:00:24.768Z,24.60
2023-03-10T21:02:53.420Z,26.65
2023-03-10T21:05:21.059Z,17.50
2023-03-10T21:07:50.000Z,19.60
2023-03-10T21:10:18.169Z,22.08
2023-03-10T21:12:45.838Z,20.65
2023-03-10T21:15:15.391Z,22.67
2023-03-10T21:17:43.190Z,17.88
2023-03-10T21:20:15.402Z,17.45
2023-03-10T21:22:43.329Z,14.50
2023-03-10T21:25:16.786Z,15.68
2023-03-10T21:27:47.684Z,14.57
2023-03-10T21:30:15.959Z,15.80
2023-03-10T21:32:44.091Z,16.95
2023-03-10T21:35:13.719Z,10.02
2023-03-10T21:37:42.843Z,10.88
2023-03-10T21:40:15.018Z,15.07
2023-03-10T21:42:42.587Z,11.18
2023-03-10T21:45:13.613Z,9.00
2023-03-10T21:47:41.277Z,8.40
2023-03-10T21:50:09.478Z,11.90
2023-03-10T21:52:37.084Z,6.95
2023-03-10T21:55:05.189Z,6.32
2023-03-10T21:57:32.580Z,7.13
2023-03-10T22:00:00.141Z,10.10
2023-03-10T22:02:30.598Z,7.57
2023-03-10T22:04:58.002Z,3.58
2023-03-10T22:07:25.290Z,7.53
2023-03-10T22:09:52.641Z,6.40
2023-03-10T22:12:20.110Z,8.32
2023-03-10T22:14:50.264Z,7.85
2023-03-10T22:17:17.579Z,7.68
2023-03-10T22:19:47.968Z,8.15
2023-03-10T22:22:15.299Z,7.53
2023-03-10T22:24:43.647Z,8.50
2023-03-10T22:27:11.030Z,5.82
2023-03-10T22:29:38.405Z,11.60
2023-03-10T22:32:06.604Z,9.32
2023-03-10T22:34:34.053Z,6.43
2023-03-10T22:37:01.489Z,5.53
2023-03-10T22:39:28.858Z,9.57
2023-03-10T22:41:56.252Z,8.82
2023-03-10T22:44:23.699Z,5.00
2023-03-10T22:46:51.884Z,5.05
2023-03-10T22:49:19.548Z,8.32
2023-03-10T22:51:47.710Z,3.75
2023-03-10T22:54:15.201Z,3.60
2023-03-10T22:56:42.469Z,5.35
2023-03-10T22:59:09.876Z,5.93
2023-03-10T23:01:37.485Z,9.27
2023-03-10T23:04:04.988Z,7.32
2023-03-10T23:06:35.592Z,9.65
2023-03-10T23:09:04.972Z,6.72
2023-03-10T23:11:32.338Z,7.07
2023-03-10T23:14:03.527Z,4.28
2023-03-10T23:16:36.571Z,4.22
2023-03-10T23:19:07.206Z,2.67
2023-03-10T23:21:36.106Z,5.53
2023-03-10T23:24:03.703Z,7.03
2023-03-10T23:26:31.504Z,4.30
2023-03-10T23:28:58.879Z,7.05
2023-03-10T23:31:26.253Z,7.82
2023-03-10T23:33:53.634Z,7.18
2023-03-10T23:36:21.022Z,5.00
2023-03-10T23:38:48.387Z,5.28
2023-03-10T23:41:15.849Z,3.78
2023-03-10T23:43:43.333Z,3.85
2023-03-10T23:46:10.730Z,6.65
2023-03-10T23:48:38.163Z,3.55
2023-03-10T23:51:05.787Z,5.63
2023-03-10T23:53:33.060Z,3.53
2023-03-10T23:56:00.472Z,6.43
2023-03-10T23:58:29.421Z,2.60
